Time;durP1;ratioP1;P1;durP2;ratioP2;P2;SDS_P1;SDS_P2;PMS_P1;PMS_P2;Temp;Humidity;BMP_temperature;BMP_pressure;BME280_temperature;BME280_humidity;BME280_pressure;Samples;Min_cycle;Max_cycle;Signal;HPM_P1;HPM_P2
2023/05/02 00:00:03;;;;;;;3.45;2.13;;;;;;;2.96;78.98;99804.25;7349336;19;20675;-66
2023/05/02 00:02:32;;;;;;;4.20;2.65;;;;;;;2.96;79.19;99798.13;7349206;19;20049;-66
2023/05/02 00:04:56;;;;;;;6.85;2.78;;;;;;;2.94;79.22;99800.81;7347782;19;20019;-66
2023/05/02 00:07:21;;;;;;;2.72;2.15;;;;;;;2.93;79.04;99802.59;7344436;19;20016;-67
2023/05/02 00:09:46;;;;;;;2.83;2.25;;;;;;;2.93;79.09;99807.03;7345903;19;20010;-68
2023/05/02 00:12:11;;;;;;;2.50;2.05;;;;;;;2.89;78.94;99803.66;7346685;19;20342;-68
2023/05/02 00:14:35;;;;;;;4.70;2.55;;;;;;;2.84;78.65;99810.00;7348510;19;20040;-68
2023/05/02 00:17:00;;;;;;;5.03;2.60;;;;;;;2.84;78.49;99816.13;7348305;19;20011;-66
2023/05/02 00:19:24;;;;;;;3.22;2.25;;;;;;;2.82;78.29;99819.75;7347294;19;20469;-68
2023/05/02 00:21:49;;;;;;;3.60;2.67;;;;;;;2.82;78.47;99817.13;7348534;19;20557;-67
2023/05/02 00:24:16;;;;;;;5.18;2.35;;;;;;;2.81;78.13;99820.66;7348746;19;20007;-67
2023/05/02 00:26:40;;;;;;;7.78;2.88;;;;;;;2.82;77.86;99827.66;7345210;19;20058;-66
2023/05/02 00:29:05;;;;;;;2.95;2.42;;;;;;;2.81;78.03;99826.78;7343602;19;20014;-68
2023/05/02 00:31:30;;;;;;;5.43;3.30;;;;;;;2.83;77.76;99834.59;7344781;19;20361;-68
2023/05/02 00:33:55;;;;;;;5.25;3.25;;;;;;;2.84;77.72;99833.69;7346441;19;20365;-68
2023/05/02 00:36:20;;;;;;;6.65;3.38;;;;;;;2.84;77.78;99833.69;7347018;19;21099;-71
2023/05/02 00:38:45;;;;;;;6.88;3.00;;;;;;;2.83;77.86;99839.88;7343201;19;20019;-72
2023/05/02 00:41:11;;;;;;;5.30;3.25;;;;;;;2.81;78.01;99842.59;7345195;19;20025;-71
2023/05/02 00:43:40;;;;;;;5.68;3.05;;;;;;;2.83;78.29;99848.63;7344104;19;20026;-73
2023/05/02 00:46:06;;;;;;;6.40;3.08;;;;;;;2.82;78.57;99844.28;7344862;19;20441;-72
2023/05/02 00:48:31;;;;;;;4.65;3.28;;;;;;;2.81;78.52;99841.72;7343171;19;20018;-70
2023/05/02 00:50:57;;;;;;;5.70;3.42;;;;;;;2.80;78.34;99843.50;7348983;19;20018;-71
2023/05/02 00:53:21;;;;;;;4.43;3.35;;;;;;;2.75;78.51;99841.94;7347252;19;20101;-69
2023/05/02 00:55:48;;;;;;;2.83;2.42;;;;;;;2.72;78.45;99844.66;7346501;19;20032;-70
2023/05/02 00:58:15;;;;;;;4.78;2.40;;;;;;;2.75;78.79;99855.09;7348697;19;20022;-73
2023/05/02 01:00:53;;;;;;;9.80;2.78;;;;;;;2.78;79.03;99857.63;7347559;19;20031;-75
2023/05/02 01:03:36;;;;;;;4.38;2.92;;;;;;;2.76;79.04;99855.03;7350148;19;20027;-72
2023/05/02 01:06:33;;;;;;;4.13;2.35;;;;;;;2.74;78.93;99858.63;7349047;19;20089;-74
2023/05/02 01:09:12;;;;;;;3.55;2.60;;;;;;;2.74;78.93;99862.13;7341538;19;20015;-72
2023/05/02 01:11:48;;;;;;;2.97;2.40;;;;;;;2.68;78.77;99866.78;7340959;19;20027;-72
2023/05/02 01:14:14;;;;;;;3.00;1.95;;;;;;;2.60;78.93;99871.47;7340870;19;20070;-71
2023/05/02 01:16:44;;;;;;;3.72;2.63;;;;;;;2.59;79.04;99883.75;7341653;19;20014;-72
2023/05/02 01:19:20;;;;;;;4.20;2.78;;;;;;;2.55;79.15;99872.47;7342043;19;20014;-74
2023/05/02 01:21:48;;;;;;;4.38;2.30;;;;;;;2.54;79.41;99878.63;7343523;19;20006;-68
2023/05/02 01:24:21;;;;;;;5.50;2.33;;;;;;;2.55;79.40;99888.25;7343309;19;20464;-68
2023/05/02 01:26:58;;;;;;;5.28;2.63;;;;;;;2.54;79.48;99886.53;7344072;19;20014;-67
2023/05/02 01:29:23;;;;;;;2.45;2.25;;;;;;;2.52;79.64;99883.09;7342783;19;20010;-67
2023/05/02 01:31:50;;;;;;;3.83;2.42;;;;;;;2.50;79.56;99889.31;7343723;19;20138;-72
2023/05/02 01:34:16;;;;;;;3.47;2.20;;;;;;;2.49;79.51;99895.47;7344467;19;20342;-76
2023/05/02 01:36:44;;;;;;;2.70;2.05;;;;;;;2.48;79.63;99902.50;7345192;19;20044;-72
2023/05/02 01:39:12;;;;;;;4.22;2.40;;;;;;;2.45;79.53;99901.78;7343078;19;20581;-74
2023/05/02 01:41:38;;;;;;;3.55;2.60;;;;;;;2.44;79.45;99911.44;7344997;19;20014;-74
2023/05/02 01:44:05;;;;;;;2.95;2.08;;;;;;;2.42;79.76;99908.00;7340588;19;20022;-72
2023/05/02 01:46:33;;;;;;;4.72;2.33;;;;;;;2.41;79.85;99911.53;7338996;19;20018;-72
2023/05/02 01:49:02;;;;;;;3.17;2.38;;;;;;;2.39;80.19;99908.09;7340527;19;20014;-73
2023/05/02 01:51:30;;;;;;;3.00;2.55;;;;;;;2.38;80.22;99913.41;7347428;19;20022;-74
2023/05/02 01:53:58;;;;;;;4.47;2.75;;;;;;;2.36;80.46;99915.25;7343146;19;20018;-68
2023/05/02 01:56:24;;;;;;;6.20;2.88;;;;;;;2.33;80.56;99924.09;7343104;19;20019;-69
2023/05/02 01:58:52;;;;;;;3.67;2.33;;;;;;;2.32;80.44;99921.53;7340517;19;20018;-74
2023/05/02 02:01:18;;;;;;;4.18;3.00;;;;;;;2.34;80.45;99920.56;7342384;19;20010;-74
2023/05/02 02:03:46;;;;;;;5.75;2.80;;;;;;;2.33;80.19;99932.00;7341584;19;20025;-75
2023/05/02 02:06:12;;;;;;;4.60;2.75;;;;;;;2.34;80.27;99941.63;7342998;19;20135;-74
2023/05/02 02:08:37;;;;;;;4.35;2.55;;;;;;;2.41;80.23;99948.38;7336020;19;20014;-68
2023/05/02 02:11:09;;;;;;;6.28;2.90;;;;;;;2.47;80.37;99932.41;7339464;19;20018;-68
2023/05/02 02:13:40;;;;;;;4.65;2.50;;;;;;;2.52;79.95;99934.88;7339925;19;20018;-69
2023/05/02 02:16:10;;;;;;;5.80;2.80;;;;;;;2.57;79.82;99943.47;7341626;19;20048;-68
2023/05/02 02:18:37;;;;;;;4.07;3.03;;;;;;;2.62;79.57;99945.94;7339734;19;20015;-67
2023/05/02 02:21:06;;;;;;;4.57;3.00;;;;;;;2.73;79.81;99954.31;7339783;19;20014;-65
2023/05/02 02:23:33;;;;;;;5.60;2.72;;;;;;;2.79;79.83;99954.97;7342154;19;20014;-65
2023/05/02 02:26:01;;;;;;;4.68;3.13;;;;;;;2.89;79.61;99960.78;7339813;19;20339;-64
2023/05/02 02:28:26;;;;;;;5.65;3.17;;;;;;;3.00;79.63;99974.44;7338542;19;20018;-70
2023/05/02 02:30:52;;;;;;;4.57;2.90;;;;;;;3.09;79.69;99958.28;7340153;19;20010;-69
2023/05/02 02:33:19;;;;;;;4.55;2.70;;;;;;;3.22;79.46;99958.72;7343156;19;20010;-71
2023/05/02 02:36:04;;;;;;;3.75;2.67;;;;;;;3.34;79.23;99966.16;7338904;19;20006;-68
2023/05/02 02:38:32;;;;;;;;;;;;;;;3.58;79.34;99969.66;7343001;19;20018;-68
2023/05/02 02:41:10;;;;;;;5.57;2.67;;;;;;;3.60;78.71;99962.56;7344834;19;20319;-68
2023/05/02 02:43:44;;;;;;;4.70;3.03;;;;;;;3.65;78.34;99966.72;7349043;19;20719;-69
2023/05/02 02:46:31;;;;;;;5.00;3.30;;;;;;;3.79;77.93;99973.25;7345078;19;20094;-69
2023/05/02 02:49:02;;;;;;;4.32;3.45;;;;;;;3.82;77.64;99976.66;7337259;19;20014;-71
2023/05/02 02:51:46;;;;;;;5.70;3.25;;;;;;;4.03;77.02;99976.72;7336929;19;20014;-71
2023/05/02 02:54:29;;;;;;;6.18;3.45;;;;;;;4.12;76.22;99973.72;7339946;19;20018;-68
2023/05/02 02:57:17;;;;;;;6.65;3.33;;;;;;;4.33;75.67;99983.41;7338377;19;20026;-68
2023/05/02 02:59:55;;;;;;;5.40;3.35;;;;;;;4.44;75.08;99981.19;7339219;19;20019;-65
2023/05/02 03:02:26;;;;;;;5.38;3.22;;;;;;;4.56;74.38;99985.97;7339088;19;20035;-65
2023/05/02 03:04:53;;;;;;;7.43;3.65;;;;;;;4.72;74.01;99983.53;7340165;19;20022;-64
2023/05/02 03:07:18;;;;;;;8.88;3.83;;;;;;;4.84;73.26;99974.25;7341873;19;20021;-66
2023/05/02 03:09:45;;;;;;;8.60;4.10;;;;;;;4.97;73.19;99981.56;7344769;19;20089;-72
2023/05/02 03:12:14;;;;;;;7.82;3.83;;;;;;;5.13;73.43;99979.13;7343459;19;20025;-69
2023/05/02 03:14:41;;;;;;;5.18;3.75;;;;;;;5.30;73.36;99978.38;7340048;19;20077;-67
2023/05/02 03:17:09;;;;;;;6.07;3.92;;;;;;;5.43;72.87;99983.03;7340489;19;20022;-68
2023/05/02 03:19:36;;;;;;;6.80;4.20;;;;;;;5.58;72.26;99989.41;7340899;19;20081;-68
2023/05/02 03:22:01;;;;;;;6.45;4.22;;;;;;;5.67;71.59;99989.00;7341964;19;20014;-67
2023/05/02 03:24:26;;;;;;;5.35;3.80;;;;;;;5.80;70.55;99991.94;7343984;19;20018;-65
2023/05/02 03:26:56;;;;;;;6.28;3.80;;;;;;;5.97;69.50;99994.69;7342822;19;20022;-66
2023/05/02 03:29:25;;;;;;;5.82;3.72;;;;;;;6.07;68.76;100008.34;7341050;19;20106;-68
2023/05/02 03:31:51;;;;;;;4.10;2.90;;;;;;;6.21;68.32;100008.53;7340425;19;20027;-66
2023/05/02 03:34:16;;;;;;;3.50;2.72;;;;;;;6.38;67.54;100002.44;7342309;19;20018;-64
2023/05/02 03:36:44;;;;;;;4.88;3.00;;;;;;;6.57;66.39;100009.41;7342624;19;20023;-65
2023/05/02 03:39:09;;;;;;;7.35;3.25;;;;;;;6.73;66.26;100009.50;7339700;19;20006;-64
2023/05/02 03:41:35;;;;;;;4.70;2.67;;;;;;;6.89;65.20;100007.78;7339298;19;20029;-64
2023/05/02 03:44:04;;;;;;;3.80;2.78;;;;;;;6.98;63.42;100019.75;7339955;19;20090;-64
2023/05/02 03:46:29;;;;;;;3.03;2.55;;;;;;;7.08;63.08;100012.16;7340869;19;20023;-65
2023/05/02 03:48:59;;;;;;;5.57;2.83;;;;;;;7.17;62.84;100017.00;7337211;19;20015;-64
2023/05/02 03:51:24;;;;;;;3.72;2.70;;;;;;;7.29;63.12;100019.88;7339915;19;20034;-66
2023/05/02 03:53:52;;;;;;;5.15;2.70;;;;;;;7.47;62.35;100018.03;7335016;19;20470;-65
2023/05/02 03:56:20;;;;;;;2.95;2.53;;;;;;;7.68;62.79;100023.13;7335544;19;20613;-65
2023/05/02 03:58:54;;;;;;;5.35;3.40;;;;;;;7.86;61.78;100025.69;7334584;19;20086;-66
2023/05/02 04:01:22;;;;;;;4.00;2.92;;;;;;;7.97;61.12;100025.09;7336074;19;20349;-65
2023/05/02 04:03:50;;;;;;;4.97;2.85;;;;;;;8.16;61.54;100031.09;7335188;19;20497;-65
2023/05/02 04:06:17;;;;;;;5.03;3.00;;;;;;;8.38;60.96;100028.13;7334778;19;20105;-66
2023/05/02 04:08:46;;;;;;;8.18;3.30;;;;;;;8.67;60.84;100032.66;7335155;19;20007;-66
2023/05/02 04:11:11;;;;;;;10.15;3.50;;;;;;;8.94;59.98;100032.84;7343399;19;20111;-66
2023/05/02 04:13:37;;;;;;;6.60;3.80;;;;;;;9.22;58.90;100031.22;7341775;19;20019;-66
2023/05/02 04:16:03;;;;;;;4.75;4.05;;;;;;;9.48;58.01;100025.16;7342465;19;20019;-65
2023/05/02 04:18:30;;;;;;;3.70;2.90;;;;;;;9.79;57.21;100032.16;7341976;19;20011;-65
2023/05/02 04:20:56;;;;;;;4.85;2.92;;;;;;;10.17;56.54;100027.06;7345662;19;20457;-65
2023/05/02 04:23:22;;;;;;;4.88;3.28;;;;;;;10.55;55.05;100035.28;7345298;19;20346;-66
2023/05/02 04:25:52;;;;;;;5.55;3.08;;;;;;;11.00;53.36;100039.41;7345153;19;20021;-67
2023/05/02 04:28:20;;;;;;;5.20;3.00;;;;;;;11.35;52.30;100042.38;7341818;19;20788;-66
2023/05/02 04:30:47;;;;;;;13.73;3.67;;;;;;;11.76;51.89;100038.66;7343778;19;20343;-66
2023/05/02 04:33:11;;;;;;;9.00;3.95;;;;;;;12.16;50.47;100042.06;7343199;19;20023;-67
2023/05/02 04:35:39;;;;;;;6.78;3.20;;;;;;;12.52;50.09;100050.09;7345106;19;20044;-66
2023/05/02 04:38:08;;;;;;;6.38;3.15;;;;;;;12.84;49.40;100041.50;7343273;19;20014;-65
2023/05/02 04:40:34;;;;;;;7.72;3.63;;;;;;;13.07;48.81;100043.31;7345847;19;20010;-66
2023/05/02 04:43:03;;;;;;;18.40;3.88;;;;;;;13.41;47.91;100039.81;7343057;19;20022;-65
2023/05/02 04:45:35;;;;;;;17.77;4.93;;;;;;;13.71;46.52;100041.94;7343077;19;20007;-65
2023/05/02 04:48:03;;;;;;;14.82;4.07;;;;;;;13.86;44.77;100045.25;7342544;19;20025;-66
2023/05/02 04:50:28;;;;;;;8.48;4.00;;;;;;;14.01;45.59;100048.53;7343570;19;20018;-66
2023/05/02 04:52:53;;;;;;;7.28;3.25;;;;;;;14.23;44.65;100048.53;7344255;19;20014;-66
2023/05/02 04:55:19;;;;;;;7.05;3.40;;;;;;;14.46;43.60;100052.94;7344120;19;20015;-66
2023/05/02 04:57:44;;;;;;;9.43;3.25;;;;;;;14.67;43.25;100061.06;7346180;19;20103;-67
2023/05/02 05:00:13;;;;;;;8.15;2.92;;;;;;;14.87;42.68;100056.75;7342615;19;20473;-68
2023/05/02 05:02:38;;;;;;;6.07;3.20;;;;;;;15.06;42.11;100058.75;7345664;19;20085;-67
2023/05/02 05:05:04;;;;;;;6.72;3.67;;;;;;;15.21;41.33;100061.03;7350297;19;20465;-68
2023/05/02 05:07:30;;;;;;;8.90;3.13;;;;;;;15.44;40.76;100051.03;7342585;19;20014;-66
2023/05/02 05:09:55;;;;;;;5.22;2.90;;;;;;;15.75;41.06;100057.31;7342580;19;20022;-67
2023/05/02 05:12:22;;;;;;;9.25;2.72;;;;;;;16.13;39.88;100054.00;7341697;19;20018;-68
2023/05/02 05:14:48;;;;;;;4.60;3.05;;;;;;;16.43;40.01;100053.09;7344020;19;20054;-68
2023/05/02 05:17:13;;;;;;;10.45;3.30;;;;;;;16.67;39.06;100056.34;7342353;19;20456;-69
2023/05/02 05:19:38;;;;;;;4.47;3.03;;;;;;;16.79;37.58;100061.59;7344596;19;20492;-68
2023/05/02 05:22:04;;;;;;;4.10;2.95;;;;;;;16.89;38.03;100049.84;7345839;19;20018;-69
2023/05/02 05:24:29;;;;;;;9.38;3.28;;;;;;;17.27;37.55;100056.22;7342115;19;20026;-68
2023/05/02 05:26:59;;;;;;;9.95;2.90;;;;;;;17.59;36.77;100061.34;7341338;19;20029;-67
2023/05/02 05:29:24;;;;;;;4.70;2.90;;;;;;;18.05;36.65;100053.31;7347073;19;20015;-65
2023/05/02 05:31:49;;;;;;;5.95;3.15;;;;;;;18.58;35.52;100057.22;7341165;19;20074;-68
2023/05/02 05:34:16;;;;;;;5.50;3.58;;;;;;;18.90;34.54;100056.72;7341530;19;20022;-67
2023/05/02 05:36:42;;;;;;;6.07;3.38;;;;;;;18.88;33.77;100058.72;7341261;19;20018;-68
2023/05/02 05:39:07;;;;;;;7.40;3.15;;;;;;;18.85;33.19;100059.88;7342935;19;20044;-67
2023/05/02 05:41:34;;;;;;;5.47;3.53;;;;;;;19.25;34.17;100050.50;7341433;19;20015;-65
2023/05/02 05:44:02;;;;;;;9.35;3.72;;;;;;;20.03;31.96;100055.00;7341109;19;20014;-64
2023/05/02 05:46:28;;;;;;;5.65;3.15;;;;;;;20.76;31.24;100060.78;7341925;19;20063;-65
2023/05/02 05:48:53;;;;;;;4.45;3.50;;;;;;;21.46;30.58;100055.84;7340670;19;20028;-66
2023/05/02 05:51:18;;;;;;;5.18;3.55;;;;;;;22.03;28.89;100045.78;7345208;19;20022;-68
2023/05/02 05:53:43;;;;;;;8.30;4.00;;;;;;;22.18;27.88;100045.09;7342605;19;20457;-69
2023/05/02 05:56:12;;;;;;;6.05;3.90;;;;;;;21.89;27.25;100049.22;7344120;19;20018;-66
2023/05/02 05:58:43;;;;;;;8.35;3.78;;;;;;;22.09;27.74;100047.00;7349877;19;20420;-66
2023/05/02 06:01:12;;;;;;;9.23;3.75;;;;;;;22.68;27.79;100051.00;7355911;19;20074;-65
2023/05/02 06:03:38;;;;;;;5.05;3.28;;;;;;;23.33;26.16;100047.06;7354190;19;20025;-66
2023/05/02 06:06:03;;;;;;;5.25;3.00;;;;;;;23.88;25.77;100049.50;7352044;19;20010;-66
2023/05/02 06:08:28;;;;;;;10.52;3.45;;;;;;;24.41;24.95;100055.75;7344345;19;20143;-67
2023/05/02 06:10:53;;;;;;;13.10;2.90;;;;;;;24.94;25.19;100052.69;7343142;19;20018;-65
2023/05/02 06:13:17;;;;;;;4.88;3.40;;;;;;;25.61;24.23;100048.78;7341918;19;20026;-65
2023/05/02 06:15:42;;;;;;;11.45;3.55;;;;;;;26.17;23.99;100049.63;7340514;19;20568;-64
2023/05/02 06:18:07;;;;;;;3.72;2.72;;;;;;;26.79;23.09;100047.88;7340911;19;20018;-65
2023/05/02 06:20:32;;;;;;;6.82;2.90;;;;;;;27.38;22.39;100050.78;7342258;19;20049;-65
2023/05/02 06:22:57;;;;;;;2.80;2.33;;;;;;;27.95;21.11;100052.09;7339703;19;20022;-65
2023/05/02 06:25:21;;;;;;;4.55;2.45;;;;;;;28.51;20.48;100050.53;7342086;19;20047;-65
2023/05/02 06:27:46;;;;;;;3.08;1.90;;;;;;;28.74;19.89;100050.03;7340965;19;20517;-65
2023/05/02 06:30:11;;;;;;;4.30;2.28;;;;;;;29.31;19.85;100045.53;7341968;19;20022;-65
2023/05/02 06:32:36;;;;;;;4.20;3.78;;;;;;;30.02;19.32;100052.66;7341409;19;20025;-66
2023/05/02 06:35:01;;;;;;;3.00;2.30;;;;;;;30.54;19.02;100057.63;7343352;19;20010;-64
2023/05/02 06:37:33;;;;;;;3.97;2.40;;;;;;;31.19;17.99;100055.09;7341265;19;20045;-65
2023/05/02 06:39:58;;;;;;;3.30;2.33;;;;;;;31.76;18.28;100058.28;7344697;19;20697;-66
2023/05/02 06:42:22;;;;;;;3.80;2.97;;;;;;;32.40;17.70;100050.97;7341201;19;20387;-66
2023/05/02 06:44:47;;;;;;;4.53;3.17;;;;;;;32.16;16.79;100055.69;7340827;19;20462;-65
2023/05/02 06:47:12;;;;;;;5.30;3.17;;;;;;;32.25;17.25;100051.50;7341084;19;20025;-66
2023/05/02 06:49:36;;;;;;;7.60;2.90;;;;;;;32.16;17.17;100055.69;7345254;19;20386;-66
2023/05/02 06:52:01;;;;;;;8.70;2.67;;;;;;;31.68;16.76;100053.97;7339313;19;20018;-65
2023/05/02 06:54:26;;;;;;;2.58;2.38;;;;;;;31.38;16.62;100053.97;7341351;19;20073;-64
2023/05/02 06:56:50;;;;;;;2.25;2.05;;;;;;;31.69;17.10;100060.31;7341006;19;20065;-65
2023/05/02 06:59:15;;;;;;;2.50;2.40;;;;;;;32.34;17.67;100057.47;7343856;19;20338;-64
2023/05/02 07:01:40;;;;;;;2.47;2.30;;;;;;;33.06;16.62;100060.72;7341184;19;20442;-64
2023/05/02 07:04:05;;;;;;;3.63;2.22;;;;;;;33.09;16.02;100057.44;7342630;19;20484;-64
2023/05/02 07:06:31;;;;;;;2.85;2.55;;;;;;;33.24;15.86;100057.78;7340342;19;20031;-63
2023/05/02 07:08:56;;;;;;;3.05;2.80;;;;;;;33.74;15.84;100062.53;7338848;19;20018;-63
2023/05/02 07:11:22;;;;;;;5.20;4.68;;;;;;;34.35;16.12;100058.00;7340402;19;20026;-64
2023/05/02 07:13:47;;;;;;;2.63;2.47;;;;;;;34.86;15.23;100056.78;7340361;19;20082;-63
2023/05/02 07:16:11;;;;;;;3.92;2.55;;;;;;;35.15;15.44;100049.91;7340497;19;20031;-64
2023/05/02 07:18:36;;;;;;;4.50;2.80;;;;;;;35.68;15.72;100054.59;7340167;19;20022;-65
2023/05/02 07:21:01;;;;;;;3.45;2.92;;;;;;;35.88;15.23;100053.16;7340677;19;20044;-64
2023/05/02 07:23:26;;;;;;;2.75;2.63;;;;;;;36.26;14.96;100047.34;7339993;19;20037;-64
2023/05/02 07:25:51;;;;;;;2.90;2.70;;;;;;;36.86;14.26;100048.78;7340106;19;20029;-63
2023/05/02 07:28:15;;;;;;;3.15;2.90;;;;;;;37.00;13.72;100049.94;7337048;19;20355;-64
2023/05/02 07:30:40;;;;;;;3.17;2.97;;;;;;;36.82;13.30;100044.88;7342485;19;20022;-64
2023/05/02 07:33:05;;;;;;;2.97;2.78;;;;;;;36.83;13.47;100045.69;7339964;19;20010;-64
2023/05/02 07:35:30;;;;;;;3.35;3.15;;;;;;;36.05;13.41;100051.06;7340191;19;20018;-64
2023/05/02 07:37:55;;;;;;;3.22;3.03;;;;;;;35.56;14.38;100048.41;7340158;19;20358;-63
2023/05/02 07:40:20;;;;;;;3.58;3.25;;;;;;;35.84;14.14;100038.97;7338457;19;20023;-64
2023/05/02 07:42:45;;;;;;;8.30;3.70;;;;;;;36.53;13.90;100026.94;7339700;19;20015;-64
2023/05/02 07:45:12;;;;;;;4.50;3.80;;;;;;;37.09;13.86;100044.69;7346226;19;20022;-64
2023/05/02 07:47:37;;;;;;;5.63;3.75;;;;;;;37.34;14.11;100039.22;7345026;19;20031;-66
2023/05/02 07:50:03;;;;;;;3.85;3.55;;;;;;;37.67;13.80;100035.09;7350491;19;20011;-64
2023/05/02 07:52:29;;;;;;;3.83;3.35;;;;;;;37.68;13.69;100041.50;7345040;19;20098;-64
2023/05/02 07:54:54;;;;;;;4.10;3.05;;;;;;;37.87;13.74;100033.41;7347115;19;20018;-64
2023/05/02 07:57:18;;;;;;;5.05;3.75;;;;;;;38.08;13.48;100035.06;7346663;19;20014;-64
2023/05/02 07:59:43;;;;;;;3.80;3.50;;;;;;;38.46;13.29;100031.66;7346663;19;20082;-65
2023/05/02 08:02:08;;;;;;;3.83;3.53;;;;;;;38.90;12.84;100024.50;7344450;19;20010;-64
2023/05/02 08:04:33;;;;;;;4.40;4.00;;;;;;;39.30;12.36;100031.81;7345441;19;20397;-67
2023/05/02 08:06:59;;;;;;;4.00;3.70;;;;;;;39.98;12.02;100136.03;7347066;19;20011;-64
2023/05/02 08:09:24;;;;;;;4.53;4.13;;;;;;;40.40;11.60;100132.63;7348600;19;20014;-66
2023/05/02 08:11:49;;;;;;;4.45;4.15;;;;;;;40.53;11.83;100120.72;7346367;19;20031;-66
2023/05/02 08:14:15;;;;;;;4.40;4.10;;;;;;;40.71;11.26;100126.72;7346542;19;20335;-63
2023/05/02 08:16:39;;;;;;;5.13;4.72;;;;;;;40.51;11.28;100083.88;7344387;19;20049;-66
2023/05/02 08:19:04;;;;;;;4.95;4.53;;;;;;;40.18;11.52;100119.09;7344129;19;20078;-65
2023/05/02 08:21:30;;;;;;;4.60;4.30;;;;;;;40.11;11.22;100129.78;7345745;19;20025;-65
2023/05/02 08:23:59;;;;;;;5.13;4.65;;;;;;;40.35;10.44;100121.47;7347110;19;20077;-66
2023/05/02 08:26:24;;;;;;;4.53;4.20;;;;;;;39.88;10.99;100113.78;7345474;19;20018;-66
2023/05/02 08:28:53;;;;;;;4.55;4.30;;;;;;;40.54;10.82;100121.56;7341770;19;20021;-67
2023/05/02 08:31:18;;;;;;;4.97;4.68;;;;;;;40.69;10.80;100084.22;7344537;19;20485;-65
2023/05/02 08:33:42;;;;;;;4.82;4.50;;;;;;;40.86;10.68;100059.44;7344070;19;20043;-65
2023/05/02 08:36:16;;;;;;;6.43;4.97;;;;;;;40.97;10.56;100075.75;7346287;19;20006;-65
2023/05/02 08:38:41;;;;;;;5.20;4.85;;;;;;;40.26;10.53;100115.69;7347094;19;20014;-67
2023/05/02 08:41:16;;;;;;;5.00;4.70;;;;;;;41.33;11.13;100112.50;7345893;19;20025;-65
2023/05/02 08:43:41;;;;;;;5.10;4.75;;;;;;;41.15;11.02;100110.53;7345741;19;20368;-67
2023/05/02 08:46:07;;;;;;;5.40;5.00;;;;;;;41.48;10.66;100069.47;7345490;19;20373;-65
2023/05/02 08:48:34;;;;;;;5.50;5.10;;;;;;;41.51;10.52;100101.63;7344106;19;20019;-66
2023/05/02 08:51:00;;;;;;;5.57;5.22;;;;;;;41.81;10.62;100101.19;7343501;19;20118;-68
2023/05/02 08:53:26;;;;;;;6.40;5.88;;;;;;;42.34;10.23;100075.59;7344775;19;20030;-65
2023/05/02 08:55:52;;;;;;;6.55;6.10;;;;;;;42.47;9.48;100052.38;7342199;19;20021;-65
2023/05/02 08:58:17;;;;;;;7.30;6.80;;;;;;;42.66;10.04;100099.97;7348314;19;20015;-63
2023/05/02 09:00:45;;;;;;;6.15;5.75;;;;;;;42.78;9.76;100108.72;7343440;19;20028;-63
2023/05/02 09:03:15;;;;;;;7.10;6.60;;;;;;;42.94;9.97;100090.41;7344145;19;20037;-63
2023/05/02 09:05:41;;;;;;;13.05;6.47;;;;;;;43.19;10.31;100054.56;7344653;19;20067;-64
2023/05/02 09:08:07;;;;;;;7.45;6.85;;;;;;;43.31;8.97;100094.97;7342720;19;20103;-67
2023/05/02 09:10:35;;;;;;;7.22;6.72;;;;;;;43.80;9.03;100051.94;7348286;19;20026;-68
2023/05/02 09:13:30;;;;;;;7.68;7.07;;;;;;;45.73;9.59;100088.56;7344189;19;20023;-67
2023/05/02 09:16:12;;;;;;;8.77;7.93;;;;;;;45.60;8.99;100085.94;7343784;19;20019;-68
2023/05/02 09:18:46;;;;;;;9.20;8.70;;;;;;;45.57;8.64;100081.78;7344630;19;20015;-68
2023/05/02 09:21:15;;;;;;;9.48;8.77;;;;;;;45.27;8.97;100079.91;7344552;19;20038;-67
2023/05/02 09:23:47;;;;;;;8.70;8.10;;;;;;;45.22;8.65;100072.47;7343635;19;20019;-69
2023/05/02 09:26:33;;;;;;;7.53;7.10;;;;;;;44.71;9.15;100047.78;7342798;19;20033;-67
2023/05/02 09:29:03;;;;;;;10.23;9.63;;;;;;;45.37;8.55;100076.81;7346169;19;20331;-70
2023/05/02 09:31:35;;;;;;;10.65;10.05;;;;;;;45.07;8.67;100068.09;7343017;19;20026;-69
2023/05/02 09:34:25;;;;;;;9.73;9.13;;;;;;;45.31;9.01;100059.22;7343618;19;20469;-68
2023/05/02 09:36:52;;;;;;;8.80;8.18;;;;;;;42.71;10.05;100019.34;7343184;19;20018;-68
2023/05/02 09:39:28;;;;;;;8.75;8.05;;;;;;;42.59;9.49;100063.91;7342987;19;20018;-68
2023/05/02 09:41:55;;;;;;;7.97;7.15;;;;;;;42.83;9.70;100040.47;7344256;19;20015;-68
2023/05/02 09:44:36;;;;;;;7.28;6.88;;;;;;;44.62;9.50;100061.84;7343192;19;20017;-68
2023/05/02 09:47:01;;;;;;;8.90;8.18;;;;;;;43.93;9.30;100044.59;7341029;19;20496;-67
2023/05/02 09:49:41;;;;;;;10.13;9.15;;;;;;;45.12;8.76;100042.66;7339254;19;20011;-68
2023/05/02 09:52:15;;;;;;;8.65;8.15;;;;;;;45.22;9.08;100044.31;7342803;19;20003;-68
2023/05/02 09:54:42;;;;;;;9.70;9.10;;;;;;;45.03;8.56;100038.16;7344255;19;20031;-68
2023/05/02 09:57:09;;;;;;;10.02;9.32;;;;;;;44.62;8.30;100039.34;7342618;19;20022;-68
2023/05/02 09:59:34;;;;;;;9.10;8.50;;;;;;;44.30;8.21;100020.84;7343885;19;20477;-67
2023/05/02 10:02:04;;;;;;;10.05;9.35;;;;;;;44.21;8.42;99993.84;7342511;19;20469;-67
2023/05/02 10:04:31;;;;;;;9.88;9.23;;;;;;;43.78;8.47;100016.91;7343778;19;20022;-69
2023/05/02 10:06:56;;;;;;;9.13;8.52;;;;;;;42.97;8.73;100016.84;7338974;19;20069;-69
2023/05/02 10:09:21;;;;;;;8.88;8.23;;;;;;;42.50;9.35;100012.53;7339802;19;20010;-69
2023/05/02 10:11:50;;;;;;;8.10;7.60;;;;;;;42.25;8.65;99904.53;7343474;19;20022;-68
2023/05/02 10:14:18;;;;;;;7.70;7.20;;;;;;;41.87;9.50;99912.31;7346278;19;20029;-69
2023/05/02 10:17:05;;;;;;;7.30;6.80;;;;;;;42.74;9.28;99900.94;7341874;19;20018;-69
2023/05/02 10:19:46;;;;;;;6.38;5.85;;;;;;;40.42;10.02;99898.41;7340299;19;20021;-69
2023/05/02 10:22:12;;;;;;;5.50;5.20;;;;;;;36.64;11.69;99900.84;7341924;19;20121;-68
2023/05/02 10:24:37;;;;;;;5.00;4.70;;;;;;;33.89;13.65;99894.91;7341958;19;20485;-68
2023/05/02 10:27:04;;;;;;;3.60;3.40;;;;;;;31.43;14.78;99896.19;7341768;19;20038;-69
2023/05/02 10:29:31;;;;;;;4.68;3.85;;;;;;;29.30;15.46;99889.22;7343428;19;20043;-68
2023/05/02 10:31:57;;;;;;;3.63;3.33;;;;;;;27.39;16.65;99885.47;7341973;19;20019;-67
2023/05/02 10:34:23;;;;;;;4.18;2.53;;;;;;;25.82;17.43;99886.75;7340850;19;20102;-67
2023/05/02 10:36:48;;;;;;;2.63;2.42;;;;;;;24.49;17.44;99892.94;7342862;19;20770;-67
2023/05/02 10:39:13;;;;;;;3.03;2.72;;;;;;;23.35;18.72;99893.50;7341397;19;20523;-67
2023/05/02 10:41:40;;;;;;;2.42;2.13;;;;;;;22.56;20.05;99892.09;7340903;19;20002;-66
2023/05/02 10:44:07;;;;;;;2.17;1.98;;;;;;;21.93;20.46;99886.81;7339650;19;20385;-67
2023/05/02 10:46:36;;;;;;;2.97;2.58;;;;;;;21.41;20.46;99897.34;7341463;19;20090;-68
2023/05/02 10:49:02;;;;;;;2.28;2.08;;;;;;;20.75;20.86;99898.38;7343558;19;20006;-66
2023/05/02 10:51:28;;;;;;;2.63;1.70;;;;;;;20.32;20.84;99905.72;7341329;19;20007;-68
2023/05/02 10:53:53;;;;;;;2.17;1.98;;;;;;;19.71;21.44;99890.63;7341303;19;20497;-67
2023/05/02 10:56:21;;;;;;;2.75;2.15;;;;;;;19.32;21.74;99892.91;7339905;19;20014;-67
2023/05/02 10:58:48;;;;;;;2.60;2.28;;;;;;;18.84;22.22;99890.72;7341995;19;20356;-68
2023/05/02 11:01:48;;;;;;;2.20;2.00;;;;;;;18.75;22.48;99886.22;7340656;19;20471;-68
2023/05/02 11:04:13;;;;;;;3.58;2.28;;;;;;;18.19;22.85;99890.03;7340202;19;20026;-68
2023/05/02 11:06:56;;;;;;;2.53;2.22;;;;;;;17.80;23.33;99891.28;7337796;19;20018;-66
2023/05/02 11:09:20;;;;;;;5.60;2.40;;;;;;;17.20;24.43;99879.97;7336867;19;20097;-66
2023/05/02 11:11:47;;;;;;;1.83;1.50;;;;;;;16.94;24.82;99879.72;7337646;19;20014;-67
2023/05/02 11:14:24;;;;;;;2.05;1.92;;;;;;;16.98;24.91;99878.47;7336704;19;20015;-66
2023/05/02 11:17:10;;;;;;;3.28;2.17;;;;;;;16.88;24.87;99874.94;7340800;19;20022;-67
2023/05/02 11:19:37;;;;;;;3.88;2.22;;;;;;;16.64;25.99;99878.94;7344292;19;20053;-71
2023/05/02 11:22:18;;;;;;;4.28;2.38;;;;;;;16.68;25.96;99868.72;7347851;19;20107;-71
2023/05/02 11:24:44;;;;;;;5.93;2.05;;;;;;;16.49;26.19;99874.91;7344681;19;20019;-71
2023/05/02 11:27:27;;;;;;;3.88;2.42;;;;;;;16.66;26.16;99868.03;7344189;19;20564;-70
2023/05/02 11:29:54;;;;;;;2.38;1.92;;;;;;;16.51;25.72;99872.09;7343843;19;20011;-71
2023/05/02 11:32:19;;;;;;;2.40;1.70;;;;;;;16.37;26.64;99865.28;7347981;19;20025;-72
2023/05/02 11:34:46;;;;;;;4.30;2.25;;;;;;;16.39;26.40;99873.22;7343889;19;20082;-71